createdAt,value
2022-09-29T00:00:27.093Z,1.52
2022-09-29T00:02:54.275Z,1.55
2022-09-29T00:05:21.390Z,1.80
2022-09-29T00:07:48.597Z,1.67
2022-09-29T00:10:15.370Z,1.80
2022-09-29T00:12:41.899Z,1.77
2022-09-29T00:15:09.351Z,1.90
2022-09-29T00:17:35.990Z,1.88
2022-09-29T00:20:02.932Z,1.90
2022-09-29T00:22:29.866Z,2.25
2022-09-29T00:24:56.823Z,2.25
2022-09-29T00:27:23.792Z,2.17
2022-09-29T00:29:50.745Z,1.80
2022-09-29T00:32:17.354Z,1.83
2022-09-29T00:34:44.549Z,1.52
2022-09-29T00:37:11.251Z,2.10
2022-09-29T00:39:37.770Z,2.00
2022-09-29T00:42:04.687Z,2.05
2022-09-29T00:45:02.954Z,1.92
2022-09-29T00:47:32.468Z,2.60
2022-09-29T00:50:24.247Z,2.05
2022-09-29T00:52:58.100Z,2.28
2022-09-29T00:55:34.491Z,2.08
2022-09-29T00:58:10.355Z,2.35
2022-09-29T01:00:38.201Z,3.58
2022-09-29T01:03:12.150Z,2.20
2022-09-29T01:05:50.044Z,2.10
2022-09-29T01:08:20.100Z,2.33
2022-09-29T01:10:48.495Z,1.90
2022-09-29T01:13:15.565Z,2.30
2022-09-29T01:15:42.611Z,2.13
2022-09-29T01:18:09.608Z,2.78
2022-09-29T01:21:03.738Z,2.03
2022-09-29T01:23:42.858Z,2.28
2022-09-29T01:26:31.085Z,2.53
2022-09-29T01:29:15.386Z,2.28
2022-09-29T01:31:57.770Z,2.40
2022-09-29T01:34:52.677Z,2.20
2022-09-29T01:37:31.910Z,2.33
2022-09-29T01:40:22.329Z,2.35
2022-09-29T01:42:59.227Z,2.25
2022-09-29T01:45:33.191Z,2.53
2022-09-29T01:48:18.525Z,2.60
2022-09-29T01:50:50.640Z,2.35
2022-09-29T01:53:22.762Z,2.60
2022-09-29T01:55:53.662Z,2.75
2022-09-29T01:58:27.694Z,2.58
2022-09-29T02:00:59.314Z,2.08
2022-09-29T02:03:30.062Z,2.10
2022-09-29T02:06:04.500Z,2.45
2022-09-29T02:08:42.639Z,1.70
2022-09-29T02:11:12.931Z,1.90
2022-09-29T02:13:58.156Z,2.58
2022-09-29T02:16:31.128Z,2.72
2022-09-29T02:19:08.271Z,2.95
2022-09-29T02:21:34.792Z,2.35
2022-09-29T02:24:01.520Z,2.30
2022-09-29T02:26:34.433Z,2.33
2022-09-29T02:29:06.461Z,3.05
2022-09-29T02:31:34.861Z,2.63
2022-09-29T02:34:03.936Z,2.78
2022-09-29T02:37:07.556Z,2.97
2022-09-29T02:39:59.401Z,2.28
2022-09-29T02:42:36.934Z,3.28
2022-09-29T02:45:13.784Z,2.58
2022-09-29T02:47:55.636Z,3.15
2022-09-29T02:50:32.156Z,3.05
2022-09-29T02:53:04.429Z,2.85
2022-09-29T02:55:52.911Z,2.90
2022-09-29T02:58:31.865Z,2.95
2022-09-29T03:00:59.799Z,2.88
2022-09-29T03:03:26.924Z,2.58
2022-09-29T03:05:54.178Z,2.40
2022-09-29T03:08:21.126Z,2.58
2022-09-29T03:10:48.205Z,2.70
2022-09-29T03:13:15.147Z,3.35
2022-09-29T03:15:42.197Z,3.08
2022-09-29T03:18:10.245Z,5.30
2022-09-29T03:20:37.680Z,2.65
2022-09-29T03:23:04.685Z,2.53
2022-09-29T03:25:31.662Z,4.80
2022-09-29T03:27:58.617Z,3.83
2022-09-29T03:30:25.699Z,3.05
2022-09-29T03:32:52.675Z,3.55
2022-09-29T03:35:20.006Z,3.38
2022-09-29T03:37:47.090Z,2.80
2022-09-29T03:40:13.833Z,3.80
2022-09-29T03:42:40.828Z,2.80
2022-09-29T03:45:08.303Z,2.67
2022-09-29T03:47:35.185Z,2.72
2022-09-29T03:50:02.177Z,2.67
2022-09-29T03:52:29.533Z,3.10
2022-09-29T03:54:56.006Z,3.10
2022-09-29T03:57:22.554Z,2.50
2022-09-29T03:59:49.620Z,3.05
2022-09-29T04:02:18.379Z,3.05
2022-09-29T04:04:45.041Z,3.17
2022-09-29T04:07:12.080Z,3.92
2022-09-29T04:09:38.603Z,2.65
2022-09-29T04:12:05.580Z,2.50
2022-09-29T04:14:32.230Z,3.25
2022-09-29T04:16:59.206Z,2.20
2022-09-29T04:19:25.808Z,3.35
2022-09-29T04:21:52.789Z,3.15
2022-09-29T04:24:19.735Z,3.65
2022-09-29T04:26:46.421Z,2.70
2022-09-29T04:29:13.037Z,2.63
2022-09-29T04:31:39.541Z,2.80
2022-09-29T04:34:06.543Z,3.00
2022-09-29T04:36:33.056Z,2.63
2022-09-29T04:39:00.021Z,2.72
2022-09-29T04:41:27.464Z,2.63
2022-09-29T04:43:54.377Z,2.85
2022-09-29T04:46:21.519Z,3.08
2022-09-29T04:48:48.525Z,3.22
2022-09-29T04:51:15.466Z,3.58
2022-09-29T04:53:42.419Z,2.58
2022-09-29T04:56:09.671Z,2.58
2022-09-29T04:58:36.946Z,3.08
2022-09-29T05:01:09.275Z,2.80
2022-09-29T05:03:36.380Z,2.80
2022-09-29T05:06:03.189Z,2.75
2022-09-29T05:08:29.715Z,2.85
2022-09-29T05:10:57.080Z,3.20
2022-09-29T05:13:24.576Z,3.90
2022-09-29T05:15:56.197Z,3.10
2022-09-29T05:18:23.378Z,3.85
2022-09-29T05:21:05.653Z,2.58
2022-09-29T05:23:36.851Z,3.25
2022-09-29T05:26:06.236Z,2.70
2022-09-29T05:28:33.180Z,3.00
2022-09-29T05:31:06.739Z,2.67
2022-09-29T05:33:34.330Z,3.20
2022-09-29T05:36:01.763Z,2.65
2022-09-29T05:38:29.281Z,2.67
2022-09-29T05:40:55.953Z,3.15
2022-09-29T05:43:23.029Z,3.33
2022-09-29T05:45:49.512Z,3.25
2022-09-29T05:48:15.959Z,3.00
2022-09-29T05:50:43.262Z,4.15
2022-09-29T05:53:10.819Z,4.07
2022-09-29T05:55:38.879Z,3.90
2022-09-29T05:58:06.757Z,3.40
2022-09-29T06:00:33.785Z,3.78
2022-09-29T06:03:00.888Z,3.70
2022-09-29T06:05:28.991Z,4.13
2022-09-29T06:07:56.127Z,3.97
2022-09-29T06:10:23.118Z,4.20
2022-09-29T06:12:49.748Z,3.75
2022-09-29T06:15:16.449Z,4.57
2022-09-29T06:17:43.379Z,3.80
2022-09-29T06:20:10.614Z,4.53
2022-09-29T06:22:37.525Z,3.90
2022-09-29T06:25:04.758Z,4.35
2022-09-29T06:27:31.305Z,4.22
2022-09-29T06:29:58.119Z,3.90
2022-09-29T06:32:24.744Z,4.35
2022-09-29T06:35:09.696Z,3.85
2022-09-29T06:37:46.455Z,2.85
2022-09-29T06:40:14.295Z,4.15
2022-09-29T06:42:40.851Z,3.88
2022-09-29T06:45:09.514Z,5.05
2022-09-29T06:47:36.011Z,5.80
2022-09-29T06:50:13.161Z,5.05
2022-09-29T06:53:01.968Z,5.38
2022-09-29T06:55:30.118Z,6.18
2022-09-29T06:58:01.273Z,6.30
2022-09-29T07:00:30.172Z,5.00
2022-09-29T07:02:56.657Z,5.30
2022-09-29T07:05:24.173Z,5.60
2022-09-29T07:07:52.697Z,5.88
2022-09-29T07:10:21.345Z,5.50
2022-09-29T07:12:48.020Z,5.93
2022-09-29T07:15:14.559Z,6.82
2022-09-29T07:17:42.005Z,6.70
2022-09-29T07:20:08.967Z,6.35
2022-09-29T07:22:35.525Z,6.20
2022-09-29T07:25:02.596Z,6.45
2022-09-29T07:27:29.170Z,6.57
2022-09-29T07:30:02.845Z,6.50
2022-09-29T07:32:32.682Z,6.78
2022-09-29T07:35:00.038Z,7.43
2022-09-29T07:37:28.555Z,7.93
2022-09-29T07:39:55.640Z,7.88
2022-09-29T07:42:22.688Z,8.65
2022-09-29T07:44:52.371Z,8.82
2022-09-29T07:47:19.712Z,9.35
2022-09-29T07:49:46.669Z,11.18
2022-09-29T07:52:14.108Z,10.45
2022-09-29T07:54:41.198Z,9.02
2022-09-29T07:57:08.206Z,9.70
2022-09-29T07:59:35.168Z,10.43
2022-09-29T08:02:02.730Z,9.85
2022-09-29T08:04:29.305Z,9.07
2022-09-29T08:06:56.598Z,9.00
2022-09-29T08:09:32.315Z,9.38
2022-09-29T08:12:08.001Z,9.13
2022-09-29T08:14:36.733Z,10.07
2022-09-29T08:17:05.698Z,9.73
2022-09-29T08:19:32.603Z,10.07
2022-09-29T08:21:59.560Z,9.98
2022-09-29T08:24:26.521Z,10.85
2022-09-29T08:26:52.988Z,10.40
2022-09-29T08:29:19.539Z,11.00
2022-09-29T08:31:46.804Z,10.68
2022-09-29T08:34:14.264Z,11.85
2022-09-29T08:36:41.569Z,11.75
2022-09-29T08:39:10.496Z,11.32
2022-09-29T08:41:46.695Z,11.98
2022-09-29T08:44:35.283Z,13.52
2022-09-29T08:47:11.104Z,11.95
2022-09-29T08:49:44.083Z,12.60
2022-09-29T08:52:17.316Z,12.93
2022-09-29T08:54:49.140Z,13.32
2022-09-29T08:57:38.455Z,13.88
2022-09-29T09:00:08.256Z,13.48
2022-09-29T09:02:56.856Z,11.98
2022-09-29T09:05:48.515Z,12.05
2022-09-29T09:09:02.351Z,11.88
2022-09-29T09:11:41.193Z,12.52
2022-09-29T09:14:11.016Z,13.38
2022-09-29T09:16:58.136Z,13.63
2022-09-29T09:19:27.890Z,12.95
2022-09-29T09:22:22.697Z,12.10
2022-09-29T09:25:05.276Z,13.20
2022-09-29T09:27:38.466Z,11.73
2022-09-29T09:30:16.403Z,12.52
2022-09-29T09:32:54.553Z,13.27
2022-09-29T09:36:28.865Z,11.55
2022-09-29T09:39:09.718Z,12.05
2022-09-29T09:41:38.307Z,10.57
2022-09-29T09:44:13.104Z,9.80
2022-09-29T09:47:18.912Z,8.25
2022-09-29T09:49:54.751Z,8.18
2022-09-29T09:52:27.357Z,7.70
2022-09-29T09:54:59.626Z,6.85
2022-09-29T09:57:48.379Z,6.38
2022-09-29T10:00:22.124Z,6.20
2022-09-29T10:02:52.052Z,6.28
2022-09-29T10:05:21.073Z,6.03
2022-09-29T10:07:51.262Z,4.50
2022-09-29T10:10:20.072Z,3.88
2022-09-29T10:12:47.123Z,2.97
2022-09-29T10:15:27.418Z,3.65
2022-09-29T10:18:10.979Z,3.53
2022-09-29T10:20:39.680Z,4.05
2022-09-29T10:23:19.428Z,3.63
2022-09-29T10:25:59.711Z,4.15
2022-09-29T10:28:29.657Z,3.15
2022-09-29T10:30:57.008Z,3.08
2022-09-29T10:33:25.655Z,3.17
2022-09-29T10:36:07.897Z,4.93
2022-09-29T10:38:35.372Z,5.18
2022-09-29T10:41:06.142Z,4.60
2022-09-29T10:43:38.138Z,5.43
2022-09-29T10:46:06.434Z,4.50
2022-09-29T10:48:33.324Z,1.98
2022-09-29T10:51:05.307Z,2.33
2022-09-29T10:53:39.491Z,0.98
2022-09-29T10:56:17.113Z,1.57
2022-09-29T10:59:00.371Z,2.38
2022-09-29T11:01:32.804Z,1.70
2022-09-29T11:04:04.595Z,1.48
2022-09-29T11:06:41.632Z,1.25
2022-09-29T11:09:13.374Z,0.80
2022-09-29T11:11:43.547Z,0.60
2022-09-29T11:14:38.040Z,1.35
2022-09-29T11:17:48.806Z,0.90
2022-09-29T11:20:15.471Z,1.67
2022-09-29T11:23:08.079Z,1.13
2022-09-29T11:25:50.109Z,1.23
2022-09-29T11:28:30.689Z,1.40
2022-09-29T11:31:27.528Z,1.00
2022-09-29T11:34:05.064Z,1.10
2022-09-29T11:36:43.079Z,1.33
2022-09-29T11:39:15.782Z,1.60
2022-09-29T11:42:05.893Z,1.80
2022-09-29T11:44:52.724Z,1.88
2022-09-29T11:47:53.773Z,1.77
2022-09-29T11:50:32.446Z,1.80
2022-09-29T11:53:22.214Z,1.60
2022-09-29T11:56:27.903Z,2.08
2022-09-29T11:59:09.374Z,1.92
2022-09-29T12:01:57.866Z,2.17
2022-09-29T12:04:50.397Z,2.50
2022-09-29T12:07:32.334Z,2.05
2022-09-29T12:10:08.451Z,1.92
2022-09-29T12:12:59.512Z,1.40
2022-09-29T12:15:52.937Z,1.52
2022-09-29T12:18:47.833Z,1.10
2022-09-29T12:21:17.823Z,1.50
2022-09-29T12:23:46.618Z,1.30
2022-09-29T12:26:23.831Z,1.15
2022-09-29T12:29:18.439Z,1.15
2022-09-29T12:31:50.078Z,1.48
2022-09-29T12:34:25.702Z,1.25
2022-09-29T12:37:05.706Z,1.38
2022-09-29T12:39:49.604Z,1.73
2022-09-29T12:42:40.022Z,1.60
2022-09-29T12:45:46.877Z,1.80
2022-09-29T12:48:27.456Z,1.55
2022-09-29T12:51:18.090Z,1.60
2022-09-29T12:54:12.460Z,1.75
2022-09-29T12:57:08.895Z,1.35
2022-09-29T12:59:47.571Z,1.55
2022-09-29T13:02:22.862Z,1.63
2022-09-29T13:05:26.997Z,1.40
2022-09-29T13:08:05.683Z,1.60
2022-09-29T13:10:32.092Z,1.27
2022-09-29T13:13:23.814Z,1.70
2022-09-29T13:16:02.917Z,1.60
2022-09-29T13:19:14.591Z,1.38
2022-09-29T13:22:07.164Z,1.05
2022-09-29T13:25:00.711Z,1.23
2022-09-29T13:27:37.597Z,1.15
2022-09-29T13:30:19.963Z,1.10
2022-09-29T13:32:55.811Z,0.95
2022-09-29T13:35:27.544Z,1.00
2022-09-29T13:38:07.474Z,1.00
2022-09-29T13:40:34.611Z,0.80
2022-09-29T13:43:05.272Z,0.80
2022-09-29T13:45:34.659Z,1.00
2022-09-29T13:48:23.061Z,0.50
2022-09-29T13:50:51.957Z,0.60
2022-09-29T13:53:34.232Z,0.88
2022-09-29T13:56:03.543Z,0.90
2022-09-29T13:58:33.703Z,0.98
2022-09-29T14:01:07.124Z,0.70
2022-09-29T14:03:39.130Z,0.60
2022-09-29T14:06:41.807Z,0.77
2022-09-29T14:09:16.153Z,0.40
2022-09-29T14:11:50.773Z,0.50
2022-09-29T14:14:29.608Z,0.30
2022-09-29T14:17:09.012Z,0.30
2022-09-29T14:19:37.923Z,0.25
2022-09-29T14:22:26.207Z,0.45
2022-09-29T14:24:55.799Z,0.22
2022-09-29T14:27:30.357Z,0.20
2022-09-29T14:30:13.867Z,0.20
2022-09-29T14:32:47.871Z,0.15
2022-09-29T14:35:23.939Z,0.20
2022-09-29T14:38:03.722Z,0.10
2022-09-29T14:40:31.471Z,0.10
2022-09-29T14:43:12.156Z,0.20
2022-09-29T14:46:21.458Z,0.10
2022-09-29T14:49:22.961Z,0.00
2022-09-29T14:52:00.130Z,0.10
2022-09-29T14:54:41.732Z,0.10
2022-09-29T14:57:33.589Z,0.10
2022-09-29T15:00:12.055Z,0.10
2022-09-29T15:02:44.618Z,0.30
2022-09-29T15:05:31.108Z,0.20
2022-09-29T15:07:59.980Z,0.00
2022-09-29T15:10:41.014Z,0.10
2022-09-29T15:13:30.278Z,0.10
2022-09-29T15:16:21.708Z,0.88
2022-09-29T15:18:57.402Z,0.00
2022-09-29T15:21:35.512Z,0.10
2022-09-29T15:24:19.142Z,0.13
2022-09-29T15:26:46.590Z,0.05
2022-09-29T15:29:18.292Z,0.25
2022-09-29T15:31:47.973Z,0.10
2022-09-29T15:34:21.423Z,0.20
2022-09-29T15:36:52.194Z,0.03
2022-09-29T15:39:31.747Z,0.00
2022-09-29T15:42:04.233Z,0.05
2022-09-29T15:44:33.663Z,0.10
2022-09-29T15:47:00.794Z,0.10
2022-09-29T15:49:29.198Z,0.10
2022-09-29T15:52:13.510Z,0.10
2022-09-29T15:54:45.110Z,0.00
2022-09-29T15:57:58.009Z,0.00
2022-09-29T16:00:26.339Z,0.00
2022-09-29T16:03:03.419Z,0.00
2022-09-29T16:05:32.810Z,0.03
2022-09-29T16:08:03.987Z,0.00
2022-09-29T16:10:34.003Z,0.03
2022-09-29T16:13:02.330Z,0.08
2022-09-29T16:15:32.861Z,0.00
2022-09-29T16:18:13.593Z,0.00
2022-09-29T16:20:43.879Z,0.10
2022-09-29T16:23:38.332Z,0.00
2022-09-29T16:26:07.943Z,0.00
2022-09-29T16:28:37.117Z,0.03
2022-09-29T16:31:18.889Z,0.10
2022-09-29T16:33:54.646Z,0.00
2022-09-29T16:36:24.048Z,0.03
2022-09-29T16:38:53.367Z,0.17
2022-09-29T16:41:35.705Z,0.10
2022-09-29T16:44:23.883Z,0.30
2022-09-29T16:47:00.578Z,0.30
2022-09-29T16:49:51.841Z,0.30
2022-09-29T16:52:28.578Z,0.30
2022-09-29T16:55:16.057Z,0.30
2022-09-29T16:57:56.157Z,0.25
2022-09-29T17:00:23.386Z,0.20
2022-09-29T17:02:53.515Z,0.10
2022-09-29T17:05:21.887Z,0.30
2022-09-29T17:07:49.687Z,0.22
2022-09-29T17:10:19.553Z,0.20
2022-09-29T17:12:46.072Z,0.20
2022-09-29T17:15:18.516Z,0.20
2022-09-29T17:17:48.236Z,0.20
2022-09-29T17:20:18.246Z,0.20
2022-09-29T17:22:45.389Z,0.20
2022-09-29T17:25:13.339Z,0.20
2022-09-29T17:27:59.054Z,0.30
2022-09-29T17:30:28.495Z,0.20
2022-09-29T17:32:58.184Z,0.25
2022-09-29T17:35:28.318Z,0.82
2022-09-29T17:37:56.308Z,0.30
2022-09-29T17:40:33.385Z,0.73
2022-09-29T17:43:01.068Z,0.60
2022-09-29T17:45:35.626Z,0.57
2022-09-29T17:48:03.261Z,1.88
2022-09-29T17:50:33.909Z,0.90
2022-09-29T17:53:00.541Z,0.90
2022-09-29T17:55:28.322Z,0.90
2022-09-29T17:57:54.955Z,0.75
2022-09-29T18:00:31.563Z,1.08
2022-09-29T18:02:59.256Z,1.73
2022-09-29T18:05:28.279Z,1.73
2022-09-29T18:07:57.093Z,2.72
2022-09-29T18:10:42.360Z,4.78
2022-09-29T18:13:09.483Z,5.97
2022-09-29T18:15:37.540Z,3.80
2022-09-29T18:18:06.040Z,2.60
2022-09-29T18:20:35.108Z,1.95
2022-09-29T18:23:02.060Z,1.80
2022-09-29T18:25:30.593Z,1.50
2022-09-29T18:27:57.327Z,1.75
2022-09-29T18:30:29.951Z,1.27
2022-09-29T18:32:59.683Z,1.48
2022-09-29T18:35:31.951Z,1.67
2022-09-29T18:38:02.572Z,2.17
2022-09-29T18:40:31.108Z,2.30
2022-09-29T18:42:58.958Z,2.63
2022-09-29T18:45:29.447Z,3.28
2022-09-29T18:48:01.417Z,4.30
2022-09-29T18:50:38.742Z,3.70
2022-09-29T18:53:11.579Z,4.70
2022-09-29T18:55:38.110Z,4.38
2022-09-29T18:58:05.287Z,5.13
2022-09-29T19:00:36.603Z,7.45
2022-09-29T19:03:05.174Z,9.15
2022-09-29T19:05:33.475Z,13.13
2022-09-29T19:08:02.891Z,18.17
2022-09-29T19:10:33.406Z,16.85
2022-09-29T19:13:03.291Z,12.35
2022-09-29T19:15:34.542Z,9.60
2022-09-29T19:18:02.386Z,8.50
2022-09-29T19:20:30.095Z,6.88
2022-09-29T19:22:58.769Z,7.75
2022-09-29T19:25:28.979Z,8.20
2022-09-29T19:27:59.392Z,7.63
2022-09-29T19:30:26.594Z,6.07
2022-09-29T19:32:54.018Z,5.10
2022-09-29T19:35:23.205Z,5.93
2022-09-29T19:37:50.746Z,6.03
2022-09-29T19:40:23.543Z,5.70
2022-09-29T19:42:50.960Z,6.60
2022-09-29T19:45:17.747Z,4.93
2022-09-29T19:47:45.342Z,3.75
2022-09-29T19:50:30.619Z,4.55
2022-09-29T19:52:57.569Z,3.13
2022-09-29T19:55:24.276Z,2.92
2022-09-29T19:57:50.815Z,3.03
2022-09-29T20:00:20.274Z,3.35
2022-09-29T20:02:47.363Z,2.97
2022-09-29T20:05:15.867Z,1.90
2022-09-29T20:07:46.403Z,2.33
2022-09-29T20:10:16.596Z,2.53
2022-09-29T20:12:43.889Z,2.63
2022-09-29T20:15:13.759Z,2.70
2022-09-29T20:17:41.538Z,3.17
2022-09-29T20:20:10.076Z,2.83
2022-09-29T20:22:37.041Z,2.65
2022-09-29T20:25:05.562Z,3.22
2022-09-29T20:27:32.044Z,2.72
2022-09-29T20:29:58.596Z,2.50
2022-09-29T20:32:25.225Z,2.58
2022-09-29T20:34:51.705Z,3.42
2022-09-29T20:37:18.215Z,2.75
2022-09-29T20:39:44.786Z,3.10
2022-09-29T20:42:11.954Z,2.20
2022-09-29T20:44:38.416Z,2.30
2022-09-29T20:47:06.052Z,2.53
2022-09-29T20:49:32.574Z,2.70
2022-09-29T20:51:59.400Z,2.35
2022-09-29T20:54:26.107Z,2.95
2022-09-29T20:56:53.698Z,3.03
2022-09-29T20:59:23.121Z,2.15
2022-09-29T21:01:51.232Z,3.00
2022-09-29T21:04:19.903Z,2.78
2022-09-29T21:06:49.231Z,2.92
2022-09-29T21:09:18.726Z,2.72
2022-09-29T21:11:47.196Z,2.40
2022-09-29T21:14:13.654Z,2.50
2022-09-29T21:16:45.248Z,3.00
2022-09-29T21:19:12.856Z,2.60
2022-09-29T21:21:40.946Z,2.63
2022-09-29T21:24:09.539Z,2.85
2022-09-29T21:26:36.536Z,3.15
2022-09-29T21:29:04.238Z,3.25
2022-09-29T21:31:33.222Z,3.03
2022-09-29T21:34:06.083Z,3.30
2022-09-29T21:36:35.444Z,3.10
2022-09-29T21:39:07.583Z,3.13
2022-09-29T21:41:37.879Z,3.47
2022-09-29T21:44:11.291Z,3.58
2022-09-29T21:46:38.408Z,3.00
2022-09-29T21:49:07.468Z,4.03
2022-09-29T21:51:37.817Z,3.40
2022-09-29T21:54:07.657Z,3.33
2022-09-29T21:56:40.328Z,3.17
2022-09-29T21:59:08.542Z,3.28
2022-09-29T22:01:35.428Z,3.47
2022-09-29T22:04:02.572Z,3.72
2022-09-29T22:06:32.143Z,3.67
2022-09-29T22:09:00.078Z,3.42
2022-09-29T22:11:29.119Z,3.30
2022-09-29T22:13:58.902Z,3.50
2022-09-29T22:16:29.276Z,2.95
2022-09-29T22:19:18.764Z,3.38
2022-09-29T22:21:44.548Z,3.08
2022-09-29T22:24:13.500Z,3.00
2022-09-29T22:26:40.910Z,3.10
2022-09-29T22:29:08.108Z,3.88
2022-09-29T22:31:35.095Z,3.28
2022-09-29T22:34:04.254Z,2.92
2022-09-29T22:36:33.186Z,3.50
2022-09-29T22:39:00.367Z,3.97
2022-09-29T22:41:27.185Z,4.32
2022-09-29T22:43:55.058Z,4.72
2022-09-29T22:46:24.090Z,2.95
2022-09-29T22:48:51.034Z,4.85
2022-09-29T22:51:18.378Z,2.88
2022-09-29T22:53:44.863Z,3.50
2022-09-29T22:56:15.584Z,3.65
2022-09-29T22:58:42.594Z,2.97
2022-09-29T23:01:13.550Z,3.30
2022-09-29T23:03:41.672Z,3.17
2022-09-29T23:06:08.545Z,3.50
2022-09-29T23:08:36.191Z,3.80
2022-09-29T23:11:05.565Z,2.88
2022-09-29T23:13:34.339Z,3.25
2022-09-29T23:16:05.236Z,3.30
2022-09-29T23:18:34.110Z,3.13
2022-09-29T23:21:05.379Z,2.28
2022-09-29T23:23:32.841Z,2.35
2022-09-29T23:26:00.762Z,2.13
2022-09-29T23:28:27.947Z,3.00
2022-09-29T23:30:55.207Z,2.25
2022-09-29T23:33:22.233Z,2.53
2022-09-29T23:35:48.860Z,2.22
2022-09-29T23:38:33.970Z,1.77
2022-09-29T23:41:01.480Z,1.75
2022-09-29T23:43:28.154Z,1.70
2022-09-29T23:45:54.750Z,1.30
2022-09-29T23:48:22.242Z,1.50
2022-09-29T23:50:48.934Z,1.50
2022-09-29T23:53:15.430Z,1.80
2022-09-29T23:55:41.996Z,1.63
2022-09-29T23:58:08.564Z,1.92
